Time;durP1;ratioP1;P1;durP2;ratioP2;P2;SDS_P1;SDS_P2;PMS_P1;PMS_P2;Temp;Humidity;BMP_temperature;BMP_pressure;BME280_temperature;BME280_humidity;BME280_pressure;Samples;Min_cycle;Max_cycle;Signal;HPM_P1;HPM_P2
2022/09/27 00:02:05;;;;;;;0.30;0.30;;;;;;;;;;7379345;19;20125;-72
2022/09/27 00:04:30;;;;;;;0.30;0.30;;;;;;;;;;7391178;19;20188;-72
2022/09/27 00:06:56;;;;;;;0.20;0.20;;;;;;;;;;7383362;19;20132;-72
2022/09/27 00:09:21;;;;;;;0.30;0.30;;;;;;;;;;7383210;19;20113;-72
2022/09/27 00:11:46;;;;;;;0.30;0.30;;;;;;;;;;7380666;19;20101;-72
2022/09/27 00:14:33;;;;;;;0.30;0.30;;;;;;;;;;7378857;19;20192;-72
2022/09/27 00:17:30;;;;;;;0.83;0.83;;;;;;;;;;7380021;19;20132;-72
2022/09/27 00:20:03;;;;;;;0.67;0.67;;;;;;;;;;7376812;19;20469;-72
2022/09/27 00:22:31;;;;;;;0.30;0.30;;;;;;;;;;7382449;19;20129;-72
2022/09/27 00:25:04;;;;;;;0.20;0.20;;;;;;;;;;7381754;19;20137;-72
2022/09/27 00:27:32;;;;;;;0.30;0.30;;;;;;;;;;7385166;19;20188;-72
2022/09/27 00:30:04;;;;;;;0.30;0.30;;;;;;;;;;7382137;19;20145;-74
2022/09/27 00:32:32;;;;;;;0.30;0.30;;;;;;;;;;7383319;19;20132;-72
2022/09/27 00:35:00;;;;;;;0.30;0.30;;;;;;;;;;7372018;19;20201;-72
2022/09/27 00:37:26;;;;;;;0.30;0.30;;;;;;;;;;7368378;19;20146;-75
2022/09/27 00:39:51;;;;;;;0.23;0.23;;;;;;;;;;7375993;19;20113;-74
2022/09/27 00:42:17;;;;;;;0.20;0.20;;;;;;;;;;7377000;19;20203;-74
2022/09/27 00:45:02;;;;;;;0.20;0.20;;;;;;;;;;7362771;19;20153;-74
2022/09/27 00:47:40;;;;;;;0.23;0.23;;;;;;;;;;7370392;19;20125;-73
2022/09/27 00:50:27;;;;;;;0.50;0.50;;;;;;;;;;7373837;19;20149;-73
2022/09/27 00:53:01;;;;;;;0.20;0.20;;;;;;;;;;7373195;19;20197;-73
2022/09/27 00:55:30;;;;;;;0.30;0.30;;;;;;;;;;7373616;19;20163;-74
2022/09/27 00:57:56;;;;;;;0.30;0.30;;;;;;;;;;7376624;19;20105;-74
2022/09/27 01:00:22;;;;;;;0.30;0.30;;;;;;;;;;7374809;19;20128;-74
2022/09/27 01:02:49;;;;;;;0.30;0.30;;;;;;;;;;7372796;19;20136;-74
2022/09/27 01:05:16;;;;;;;0.30;0.30;;;;;;;;;;7375406;19;20572;-74
2022/09/27 01:07:42;;;;;;;0.30;0.30;;;;;;;;;;7381746;19;20122;-74
2022/09/27 01:10:07;;;;;;;0.30;0.30;;;;;;;;;;7370317;19;20128;-74
2022/09/27 01:12:42;;;;;;;0.27;0.27;;;;;;;;;;7372263;19;20176;-74
2022/09/27 01:15:48;;;;;;;0.20;0.20;;;;;;;;;;7377707;19;20129;-74
2022/09/27 01:18:19;;;;;;;0.30;0.30;;;;;;;;;;7378302;19;20492;-74
2022/09/27 01:21:09;;;;;;;0.30;0.30;;;;;;;;;;7379271;19;20136;-74
2022/09/27 01:24:01;;;;;;;0.30;0.30;;;;;;;;;;7375094;19;20486;-74
2022/09/27 01:27:03;;;;;;;0.20;0.20;;;;;;;;;;7371670;19;20146;-74
2022/09/27 01:29:53;;;;;;;0.30;0.30;;;;;;;;;;7378767;19;20495;-74
2022/09/27 01:32:40;;;;;;;0.30;0.30;;;;;;;;;;7382745;19;20109;-74
2022/09/27 01:35:12;;;;;;;0.30;0.30;;;;;;;;;;7374752;19;20152;-74
2022/09/27 01:37:40;;;;;;;0.30;0.30;;;;;;;;;;7379999;19;20466;-74
2022/09/27 01:40:24;;;;;;;0.30;0.30;;;;;;;;;;7381007;19;20835;-74
2022/09/27 01:43:11;;;;;;;0.30;0.30;;;;;;;;;;7379695;19;20113;-74
2022/09/27 01:45:46;;;;;;;0.30;0.30;;;;;;;;;;7378279;19;20693;-74
2022/09/27 01:48:21;;;;;;;0.30;0.30;;;;;;;;;;7378766;19;20112;-74
2022/09/27 01:51:03;;;;;;;0.30;0.30;;;;;;;;;;7378241;19;20139;-74
2022/09/27 01:53:32;;;;;;;0.30;0.30;;;;;;;;;;7377700;19;20201;-74
2022/09/27 01:56:01;;;;;;;0.20;0.20;;;;;;;;;;7376279;19;20146;-74
2022/09/27 01:58:53;;;;;;;0.30;0.30;;;;;;;;;;7379962;19;20661;-74
2022/09/27 02:01:20;;;;;;;1.90;1.80;;;;;;;;;;7375963;19;20133;-74
2022/09/27 02:03:48;;;;;;;0.27;0.27;;;;;;;;;;7376252;19;20595;-74
2022/09/27 02:06:18;;;;;;;0.30;0.30;;;;;;;;;;7376523;19;20415;-73
2022/09/27 02:08:57;;;;;;;0.27;0.27;;;;;;;;;;7378801;19;20169;-73
2022/09/27 02:11:22;;;;;;;0.97;0.97;;;;;;;;;;7377946;19;20124;-73
2022/09/27 02:14:02;;;;;;;0.30;0.30;;;;;;;;;;7376182;19;20121;-73
2022/09/27 02:16:40;;;;;;;0.30;0.30;;;;;;;;;;7374480;19;20127;-72
2022/09/27 02:19:23;;;;;;;0.30;0.30;;;;;;;;;;7376289;19;20129;-73
2022/09/27 02:21:57;;;;;;;0.30;0.30;;;;;;;;;;7377157;19;20113;-73
2022/09/27 02:24:29;;;;;;;0.23;0.23;;;;;;;;;;7365957;19;20482;-73
2022/09/27 02:27:03;;;;;;;0.40;0.40;;;;;;;;;;7368866;19;20632;-73
2022/09/27 02:29:50;;;;;;;0.30;0.30;;;;;;;;;;7374244;19;20204;-73
2022/09/27 02:32:16;;;;;;;0.40;0.40;;;;;;;;;;7375019;19;20684;-73
2022/09/27 02:34:42;;;;;;;0.30;0.30;;;;;;;;;;7376539;19;20474;-72
2022/09/27 02:37:08;;;;;;;0.30;0.30;;;;;;;;;;7372914;19;20142;-73
2022/09/27 02:39:33;;;;;;;0.30;0.30;;;;;;;;;;7374495;19;20592;-73
2022/09/27 02:41:59;;;;;;;0.20;0.20;;;;;;;;;;7378606;19;20147;-73
2022/09/27 02:44:25;;;;;;;0.30;0.30;;;;;;;;;;7381225;19;20245;-73
2022/09/27 02:47:08;;;;;;;0.40;0.40;;;;;;;;;;7383407;19;20604;-73
2022/09/27 02:49:52;;;;;;;0.40;0.40;;;;;;;;;;7384241;19;20158;-73
2022/09/27 02:52:30;;;;;;;0.30;0.30;;;;;;;;;;7381165;19;20138;-73
2022/09/27 02:55:50;;;;;;;0.30;0.30;;;;;;;;;;7380246;19;20654;-73
2022/09/27 02:58:41;;;;;;;0.30;0.30;;;;;;;;;;7381764;19;20140;-73
2022/09/27 03:01:49;;;;;;;0.23;0.23;;;;;;;;;;7380796;19;20120;-74
2022/09/27 03:04:22;;;;;;;0.30;0.30;;;;;;;;;;7380342;19;20137;-74
2022/09/27 03:06:48;;;;;;;0.47;0.47;;;;;;;;;;7383347;19;20117;-73
2022/09/27 03:09:21;;;;;;;0.20;0.20;;;;;;;;;;7385892;19;20509;-74
2022/09/27 03:11:47;;;;;;;0.30;0.30;;;;;;;;;;7380183;19;20123;-74
2022/09/27 03:14:13;;;;;;;0.30;0.30;;;;;;;;;;7382192;19;20161;-74
2022/09/27 03:16:38;;;;;;;0.30;0.30;;;;;;;;;;7379361;19;20182;-74
2022/09/27 03:19:03;;;;;;;0.30;0.30;;;;;;;;;;7381149;19;20137;-74
2022/09/27 03:21:29;;;;;;;0.30;0.30;;;;;;;;;;7381430;19;20173;-74
2022/09/27 03:23:55;;;;;;;0.30;0.30;;;;;;;;;;7384658;19;20188;-74
2022/09/27 03:26:20;;;;;;;0.30;0.30;;;;;;;;;;7382815;19;20121;-74
2022/09/27 03:28:46;;;;;;;0.30;0.30;;;;;;;;;;7380543;19;20116;-74
2022/09/27 03:31:11;;;;;;;0.23;0.23;;;;;;;;;;7380251;19;20109;-74
2022/09/27 03:33:36;;;;;;;0.20;0.20;;;;;;;;;;7380246;19;20157;-74
2022/09/27 03:36:03;;;;;;;0.37;0.37;;;;;;;;;;7375696;19;20133;-73
2022/09/27 03:38:28;;;;;;;0.30;0.30;;;;;;;;;;7380215;19;20571;-73
2022/09/27 03:40:53;;;;;;;0.30;0.30;;;;;;;;;;7379198;19;20124;-74
2022/09/27 03:43:19;;;;;;;0.30;0.30;;;;;;;;;;7382402;19;20109;-73
2022/09/27 03:45:44;;;;;;;0.47;0.47;;;;;;;;;;7378800;19;20129;-73
2022/09/27 03:48:10;;;;;;;0.30;0.30;;;;;;;;;;7380633;19;20184;-74
2022/09/27 03:50:35;;;;;;;0.30;0.30;;;;;;;;;;7380608;19;20108;-73
2022/09/27 03:53:01;;;;;;;0.30;0.30;;;;;;;;;;7382008;19;20138;-73
2022/09/27 03:55:26;;;;;;;0.30;0.30;;;;;;;;;;7380037;19;20883;-74
2022/09/27 03:57:52;;;;;;;0.20;0.20;;;;;;;;;;7378277;19;20125;-74
2022/09/27 04:00:18;;;;;;;0.30;0.30;;;;;;;;;;7378904;19;20111;-73
2022/09/27 04:02:43;;;;;;;0.30;0.30;;;;;;;;;;7379611;19;20108;-74
2022/09/27 04:05:09;;;;;;;0.30;0.30;;;;;;;;;;7373394;19;20850;-73
2022/09/27 04:07:34;;;;;;;0.40;0.40;;;;;;;;;;7383173;19;20101;-73
2022/09/27 04:10:00;;;;;;;0.30;0.30;;;;;;;;;;7377489;19;20322;-74
2022/09/27 04:12:25;;;;;;;0.30;0.30;;;;;;;;;;7379922;19;20121;-74
2022/09/27 04:14:51;;;;;;;0.40;0.40;;;;;;;;;;7380518;19;20130;-74
2022/09/27 04:17:16;;;;;;;0.30;0.30;;;;;;;;;;7371595;19;20101;-74
2022/09/27 04:19:41;;;;;;;0.30;0.30;;;;;;;;;;7373853;19;20469;-74
2022/09/27 04:22:07;;;;;;;0.30;0.30;;;;;;;;;;7380183;19;20113;-74
2022/09/27 04:24:32;;;;;;;0.33;0.33;;;;;;;;;;7379743;19;20176;-74
2022/09/27 04:26:58;;;;;;;0.30;0.30;;;;;;;;;;7381458;19;20439;-74
2022/09/27 04:29:23;;;;;;;0.40;0.40;;;;;;;;;;7379218;19;20484;-74
2022/09/27 04:31:49;;;;;;;0.30;0.30;;;;;;;;;;7376658;19;20121;-74
2022/09/27 04:34:14;;;;;;;0.30;0.30;;;;;;;;;;7378395;19;20164;-74
2022/09/27 04:36:40;;;;;;;0.30;0.30;;;;;;;;;;7381118;19;20114;-74
2022/09/27 04:39:07;;;;;;;0.50;0.50;;;;;;;;;;7377163;19;20117;-73
2022/09/27 04:41:34;;;;;;;0.30;0.30;;;;;;;;;;7377228;19;20575;-74
2022/09/27 04:44:00;;;;;;;0.23;0.23;;;;;;;;;;7378588;19;20121;-73
2022/09/27 04:46:30;;;;;;;0.40;0.40;;;;;;;;;;7380095;19;20120;-74
2022/09/27 04:48:59;;;;;;;4.23;1.07;;;;;;;;;;7375346;19;20113;-74
2022/09/27 04:51:24;;;;;;;0.30;0.30;;;;;;;;;;7376555;19;20105;-73
2022/09/27 04:53:49;;;;;;;0.30;0.30;;;;;;;;;;7377706;19;20180;-74
2022/09/27 04:56:15;;;;;;;0.30;0.30;;;;;;;;;;7372149;19;20105;-74
2022/09/27 04:58:40;;;;;;;0.30;0.30;;;;;;;;;;7379424;19;20152;-74
2022/09/27 05:01:06;;;;;;;0.20;0.20;;;;;;;;;;7378431;19;20122;-74
2022/09/27 05:03:31;;;;;;;0.30;0.30;;;;;;;;;;7377214;19;20121;-74
2022/09/27 05:05:57;;;;;;;0.30;0.30;;;;;;;;;;7374454;19;20912;-71
2022/09/27 05:08:23;;;;;;;0.30;0.30;;;;;;;;;;7375316;19;20109;-74
2022/09/27 05:10:49;;;;;;;0.30;0.30;;;;;;;;;;7376377;19;20125;-73
2022/09/27 05:13:14;;;;;;;0.30;0.30;;;;;;;;;;7376366;19;20128;-73
2022/09/27 05:15:40;;;;;;;0.30;0.30;;;;;;;;;;7377521;19;20189;-74
2022/09/27 05:18:07;;;;;;;0.30;0.30;;;;;;;;;;7374986;19;20607;-73
2022/09/27 05:20:33;;;;;;;3.90;1.37;;;;;;;;;;7372289;19;20113;-74
2022/09/27 05:22:59;;;;;;;0.30;0.30;;;;;;;;;;7375300;19;20604;-73
2022/09/27 05:25:24;;;;;;;0.30;0.30;;;;;;;;;;7374999;19;20192;-73
2022/09/27 05:27:50;;;;;;;0.30;0.30;;;;;;;;;;7370191;19;20699;-72
2022/09/27 05:30:15;;;;;;;0.30;0.30;;;;;;;;;;7371093;19;20121;-73
2022/09/27 05:32:46;;;;;;;0.30;0.30;;;;;;;;;;7374642;19;20206;-73
2022/09/27 05:35:13;;;;;;;0.30;0.30;;;;;;;;;;7374791;19;20128;-72
2022/09/27 05:37:39;;;;;;;0.20;0.20;;;;;;;;;;7375977;19;20131;-72
2022/09/27 05:40:05;;;;;;;0.30;0.30;;;;;;;;;;7376902;19;20138;-72
2022/09/27 05:42:31;;;;;;;0.30;0.30;;;;;;;;;;7374778;19;20109;-73
2022/09/27 05:44:56;;;;;;;0.30;0.30;;;;;;;;;;7370792;19;20490;-72
2022/09/27 05:47:21;;;;;;;0.30;0.30;;;;;;;;;;7376577;19;20571;-72
2022/09/27 05:49:47;;;;;;;0.20;0.20;;;;;;;;;;7371302;19;20559;-72
2022/09/27 05:52:12;;;;;;;0.30;0.30;;;;;;;;;;7379538;19;20121;-72
2022/09/27 05:54:38;;;;;;;0.37;0.37;;;;;;;;;;7377963;19;20496;-72
2022/09/27 05:57:04;;;;;;;0.30;0.30;;;;;;;;;;7371191;19;20152;-71
2022/09/27 05:59:30;;;;;;;0.30;0.30;;;;;;;;;;7372492;19;20115;-72
2022/09/27 06:01:56;;;;;;;0.30;0.30;;;;;;;;;;7375997;19;20101;-72
2022/09/27 06:04:21;;;;;;;0.30;0.30;;;;;;;;;;7371177;19;20121;-72
2022/09/27 06:06:47;;;;;;;0.20;0.20;;;;;;;;;;7373081;19;20125;-72
2022/09/27 06:09:13;;;;;;;0.30;0.30;;;;;;;;;;7373833;19;20113;-72
2022/09/27 06:11:39;;;;;;;0.30;0.30;;;;;;;;;;7369617;19;20478;-73
2022/09/27 06:14:04;;;;;;;0.30;0.30;;;;;;;;;;7374768;19;20156;-72
2022/09/27 06:16:30;;;;;;;0.30;0.30;;;;;;;;;;7366351;19;20154;-72
2022/09/27 06:18:56;;;;;;;0.27;0.27;;;;;;;;;;7368704;19;20507;-72
2022/09/27 06:21:22;;;;;;;0.20;0.20;;;;;;;;;;7368752;19;20135;-72
2022/09/27 06:23:47;;;;;;;0.20;0.20;;;;;;;;;;7376023;19;20125;-72
2022/09/27 06:26:13;;;;;;;0.30;0.30;;;;;;;;;;7362953;19;20117;-72
2022/09/27 06:28:38;;;;;;;0.30;0.30;;;;;;;;;;7362833;19;20165;-72
2022/09/27 06:31:05;;;;;;;0.60;0.60;;;;;;;;;;7359217;19;20125;-72
2022/09/27 06:33:31;;;;;;;0.67;0.67;;;;;;;;;;7366353;19;20145;-72
2022/09/27 06:36:00;;;;;;;0.30;0.30;;;;;;;;;;7363410;19;20123;-73
2022/09/27 06:38:25;;;;;;;0.30;0.30;;;;;;;;;;7360031;19;20130;-72
2022/09/27 06:40:51;;;;;;;0.20;0.20;;;;;;;;;;7367701;19;20097;-73
2022/09/27 06:43:21;;;;;;;0.30;0.30;;;;;;;;;;7371904;19;20134;-73
2022/09/27 06:45:47;;;;;;;0.20;0.20;;;;;;;;;;7371876;19;20126;-73
2022/09/27 06:48:13;;;;;;;0.20;0.20;;;;;;;;;;7372242;19;20141;-73
2022/09/27 06:50:42;;;;;;;0.30;0.30;;;;;;;;;;7369932;19;20110;-75
2022/09/27 06:53:10;;;;;;;0.30;0.30;;;;;;;;;;7372792;19;20606;-74
2022/09/27 06:55:36;;;;;;;0.30;0.30;;;;;;;;;;7366878;19;20133;-74
2022/09/27 07:00:52;;;;;;;0.30;0.30;;;;;;;;;;7374655;19;20136;-74
2022/09/27 07:03:18;;;;;;;0.30;0.30;;;;;;;;;;7371921;19;20744;-73
2022/09/27 07:05:54;;;;;;;0.20;0.20;;;;;;;;;;7374109;19;20181;-73
2022/09/27 07:08:20;;;;;;;0.20;0.20;;;;;;;;;;7375371;19;20574;-73
2022/09/27 07:10:45;;;;;;;0.20;0.20;;;;;;;;;;7372540;19;20725;-73
2022/09/27 07:13:10;;;;;;;0.30;0.30;;;;;;;;;;7373110;19;20639;-73
2022/09/27 07:15:36;;;;;;;0.20;0.20;;;;;;;;;;7374856;19;20109;-73
2022/09/27 07:18:03;;;;;;;0.30;0.30;;;;;;;;;;7374848;19;20590;-73
2022/09/27 07:20:30;;;;;;;0.30;0.30;;;;;;;;;;7371165;19;20120;-74
2022/09/27 07:22:55;;;;;;;0.30;0.30;;;;;;;;;;7372201;19;20132;-73
2022/09/27 07:25:21;;;;;;;0.30;0.30;;;;;;;;;;7370022;19;20117;-73
2022/09/27 07:27:46;;;;;;;0.20;0.20;;;;;;;;;;7373080;19;20468;-75
2022/09/27 07:30:13;;;;;;;0.20;0.20;;;;;;;;;;7378992;19;20121;-73
2022/09/27 07:32:38;;;;;;;0.30;0.30;;;;;;;;;;7380100;19;20128;-73
2022/09/27 07:35:05;;;;;;;0.30;0.30;;;;;;;;;;7377107;19;20160;-73
2022/09/27 07:37:32;;;;;;;0.20;0.20;;;;;;;;;;7376211;19;20129;-73
2022/09/27 07:39:58;;;;;;;0.30;0.30;;;;;;;;;;7379308;19;20766;-74
2022/09/27 07:42:23;;;;;;;0.20;0.20;;;;;;;;;;7377782;19;20130;-74
2022/09/27 07:44:48;;;;;;;0.30;0.30;;;;;;;;;;7378636;19;20544;-73
2022/09/27 07:47:14;;;;;;;0.20;0.20;;;;;;;;;;7377961;19;20145;-74
2022/09/27 07:49:39;;;;;;;0.30;0.30;;;;;;;;;;7376036;19;20113;-73
2022/09/27 07:52:04;;;;;;;0.20;0.20;;;;;;;;;;7379733;19;20127;-73
2022/09/27 07:54:30;;;;;;;0.30;0.30;;;;;;;;;;7377424;19;20156;-74
2022/09/27 07:56:55;;;;;;;0.30;0.30;;;;;;;;;;7380394;19;20117;-74
2022/09/27 07:59:20;;;;;;;0.30;0.30;;;;;;;;;;7380697;19;20184;-73
2022/09/27 08:01:46;;;;;;;0.30;0.30;;;;;;;;;;7376012;19;20177;-74
2022/09/27 08:04:11;;;;;;;0.30;0.30;;;;;;;;;;7379742;19;20658;-73
2022/09/27 08:06:36;;;;;;;0.30;0.30;;;;;;;;;;7380217;19;20584;-74
2022/09/27 08:09:05;;;;;;;0.20;0.20;;;;;;;;;;7380652;19;20670;-72
2022/09/27 08:11:30;;;;;;;10.87;1.70;;;;;;;;;;7378673;19;20145;-74
2022/09/27 08:13:56;;;;;;;0.30;0.30;;;;;;;;;;7378702;19;20125;-73
2022/09/27 08:16:21;;;;;;;0.30;0.30;;;;;;;;;;7375468;19;20618;-73
2022/09/27 08:18:46;;;;;;;0.23;0.23;;;;;;;;;;7375475;19;20535;-74
2022/09/27 08:21:12;;;;;;;0.30;0.30;;;;;;;;;;7373968;19;20654;-73
2022/09/27 08:23:37;;;;;;;0.30;0.30;;;;;;;;;;7377337;19;20168;-73
2022/09/27 08:26:02;;;;;;;0.30;0.30;;;;;;;;;;7377598;19;20125;-73
2022/09/27 08:28:28;;;;;;;0.30;0.30;;;;;;;;;;7380594;19;20120;-73
2022/09/27 08:30:54;;;;;;;0.27;0.27;;;;;;;;;;7381538;19;20109;-73
2022/09/27 08:33:19;;;;;;;0.30;0.30;;;;;;;;;;7377808;19;20150;-74
2022/09/27 08:35:45;;;;;;;0.20;0.20;;;;;;;;;;7380836;19;20245;-73
2022/09/27 08:38:10;;;;;;;0.93;0.93;;;;;;;;;;7374113;19;20564;-73
2022/09/27 08:40:42;;;;;;;0.30;0.30;;;;;;;;;;7378508;19;20172;-73
2022/09/27 08:43:19;;;;;;;0.30;0.30;;;;;;;;;;7383096;19;20101;-73
2022/09/27 08:46:00;;;;;;;0.30;0.30;;;;;;;;;;7382179;19;20113;-73
2022/09/27 08:48:26;;;;;;;0.30;0.30;;;;;;;;;;7379822;19;20126;-74
2022/09/27 08:50:52;;;;;;;0.30;0.30;;;;;;;;;;7379420;19;20615;-75
2022/09/27 08:53:21;;;;;;;0.30;0.30;;;;;;;;;;7376786;19;20132;-73
2022/09/27 08:55:49;;;;;;;0.30;0.30;;;;;;;;;;7378390;19;20153;-73
2022/09/27 08:58:30;;;;;;;0.30;0.30;;;;;;;;;;7368661;19;20110;-74
2022/09/27 09:00:58;;;;;;;0.30;0.30;;;;;;;;;;7372416;19;20137;-73
2022/09/27 09:03:27;;;;;;;0.30;0.30;;;;;;;;;;7375191;19;20500;-73
2022/09/27 09:06:28;;;;;;;0.30;0.30;;;;;;;;;;7379652;19;20481;-73
2022/09/27 09:09:16;;;;;;;0.30;0.30;;;;;;;;;;7378558;19;20151;-73
2022/09/27 09:15:26;;;;;;;0.27;0.27;;;;;;;;;;7376090;19;20133;-74
2022/09/27 09:18:18;;;;;;;0.30;0.30;;;;;;;;;;7376275;19;20129;-72
2022/09/27 09:20:52;;;;;;;0.30;0.30;;;;;;;;;;7375189;19;20125;-73
2022/09/27 09:23:37;;;;;;;0.30;0.30;;;;;;;;;;7378060;19;20550;-74
2022/09/27 09:26:34;;;;;;;0.30;0.30;;;;;;;;;;7379749;19;20172;-73
2022/09/27 09:29:12;;;;;;;0.30;0.30;;;;;;;;;;7376140;19;20157;-73
2022/09/27 09:31:58;;;;;;;0.30;0.30;;;;;;;;;;7373250;19;20625;-75
2022/09/27 09:34:30;;;;;;;0.43;0.43;;;;;;;;;;7374706;19;20148;-74
2022/09/27 09:37:02;;;;;;;0.30;0.30;;;;;;;;;;7376817;19;20385;-73
2022/09/27 09:39:34;;;;;;;0.43;0.43;;;;;;;;;;7378452;19;20121;-73
2022/09/27 09:42:18;;;;;;;0.30;0.30;;;;;;;;;;7375705;19;20117;-74
2022/09/27 09:44:58;;;;;;;0.30;0.30;;;;;;;;;;7377193;19;20121;-74
2022/09/27 09:47:39;;;;;;;0.20;0.20;;;;;;;;;;7379933;19;20117;-73
2022/09/27 09:50:15;;;;;;;0.30;0.30;;;;;;;;;;7372664;19;20536;-72
2022/09/27 09:52:44;;;;;;;0.30;0.30;;;;;;;;;;7376288;19;20186;-73
2022/09/27 09:55:18;;;;;;;0.30;0.30;;;;;;;;;;7375507;19;20163;-74
2022/09/27 09:57:57;;;;;;;0.30;0.30;;;;;;;;;;7372402;19;20102;-73
2022/09/27 10:00:22;;;;;;;0.30;0.30;;;;;;;;;;7376133;19;20125;-73
2022/09/27 10:02:53;;;;;;;0.20;0.20;;;;;;;;;;7375530;19;20141;-74
2022/09/27 10:05:21;;;;;;;0.30;0.30;;;;;;;;;;7372058;19;20639;-73
2022/09/27 10:07:49;;;;;;;0.30;0.30;;;;;;;;;;7376966;19;20205;-73
2022/09/27 10:10:16;;;;;;;0.30;0.30;;;;;;;;;;7374697;19;20117;-73
2022/09/27 10:12:42;;;;;;;0.30;0.30;;;;;;;;;;7376534;19;20150;-73
2022/09/27 10:15:34;;;;;;;0.30;0.30;;;;;;;;;;7373874;19;20457;-73
2022/09/27 10:17:59;;;;;;;1.00;0.52;;;;;;;;;;7374247;19;20133;-73
2022/09/27 10:20:30;;;;;;;0.45;0.45;;;;;;;;;;7378959;19;20101;-73
2022/09/27 10:23:04;;;;;;;0.33;0.33;;;;;;;;;;7380611;19;20124;-73
2022/09/27 10:25:58;;;;;;;0.97;0.97;;;;;;;;;;7380257;19;20159;-73
2022/09/27 10:28:36;;;;;;;0.30;0.30;;;;;;;;;;7384249;19;20222;-73
2022/09/27 10:31:06;;;;;;;0.30;0.30;;;;;;;;;;7381951;19;20121;-74
2022/09/27 10:33:32;;;;;;;0.30;0.30;;;;;;;;;;7381890;19;20156;-73
2022/09/27 10:35:59;;;;;;;0.30;0.30;;;;;;;;;;7381203;19;20109;-74
2022/09/27 10:38:35;;;;;;;0.30;0.30;;;;;;;;;;7382362;19;20132;-73
2022/09/27 10:41:20;;;;;;;0.30;0.30;;;;;;;;;;7371278;19;20128;-73
2022/09/27 10:43:46;;;;;;;0.30;0.30;;;;;;;;;;7373978;19;20152;-73
2022/09/27 10:46:17;;;;;;;0.30;0.30;;;;;;;;;;7379489;19;20124;-73
2022/09/27 10:48:43;;;;;;;0.30;0.30;;;;;;;;;;7374774;19;20486;-74
2022/09/27 10:51:28;;;;;;;0.30;0.30;;;;;;;;;;7372118;19;20188;-73
2022/09/27 10:53:57;;;;;;;0.30;0.30;;;;;;;;;;7376834;19;20506;-74
2022/09/27 10:56:26;;;;;;;0.30;0.30;;;;;;;;;;7380749;19;20121;-73
2022/09/27 10:58:52;;;;;;;0.23;0.23;;;;;;;;;;7382499;19;20117;-73
2022/09/27 11:01:18;;;;;;;0.27;0.27;;;;;;;;;;7378859;19;20121;-74
2022/09/27 11:03:53;;;;;;;0.70;0.70;;;;;;;;;;7384091;19;20186;-73
2022/09/27 11:06:21;;;;;;;0.30;0.30;;;;;;;;;;7388748;19;20123;-73
2022/09/27 11:08:47;;;;;;;0.20;0.20;;;;;;;;;;7389957;19;20121;-74
2022/09/27 11:11:13;;;;;;;0.30;0.30;;;;;;;;;;7390285;19;20116;-73
2022/09/27 11:13:38;;;;;;;0.20;0.20;;;;;;;;;;7388258;19;20157;-73
2022/09/27 11:16:27;;;;;;;0.30;0.30;;;;;;;;;;7384628;19;20113;-73
2022/09/27 11:19:27;;;;;;;0.23;0.23;;;;;;;;;;7391674;19;20111;-73
2022/09/27 11:22:00;;;;;;;0.30;0.30;;;;;;;;;;7382621;19;20121;-74
2022/09/27 11:25:01;;;;;;;0.30;0.30;;;;;;;;;;7387125;19;20598;-73
2022/09/27 11:27:53;;;;;;;0.30;0.30;;;;;;;;;;7390911;19;20497;-72
2022/09/27 11:30:20;;;;;;;0.30;0.30;;;;;;;;;;7389743;19;20121;-73
2022/09/27 11:32:57;;;;;;;0.30;0.30;;;;;;;;;;7389775;19;20125;-73
2022/09/27 11:35:47;;;;;;;0.20;0.20;;;;;;;;;;7386509;19;20464;-73
2022/09/27 11:38:34;;;;;;;0.30;0.30;;;;;;;;;;7385252;19;20598;-73
2022/09/27 11:41:26;;;;;;;0.20;0.20;;;;;;;;;;7388057;19;20121;-73
2022/09/27 11:44:20;;;;;;;0.20;0.20;;;;;;;;;;7387584;19;20155;-73
2022/09/27 11:47:09;;;;;;;0.27;0.27;;;;;;;;;;7390567;19;20113;-73
2022/09/27 11:49:59;;;;;;;0.20;0.20;;;;;;;;;;7388160;19;20192;-73
2022/09/27 11:53:12;;;;;;;0.30;0.30;;;;;;;;;;7389031;19;20169;-73
2022/09/27 11:55:53;;;;;;;0.30;0.30;;;;;;;;;;7388776;19;20216;-73
2022/09/27 11:58:36;;;;;;;0.20;0.20;;;;;;;;;;7386535;19;20128;-73
2022/09/27 12:01:37;;;;;;;0.30;0.30;;;;;;;;;;7388374;19;20145;-74
2022/09/27 12:04:18;;;;;;;0.30;0.30;;;;;;;;;;7386750;19;20122;-74
2022/09/27 12:06:51;;;;;;;0.30;0.30;;;;;;;;;;7390395;19;20579;-73
2022/09/27 12:09:21;;;;;;;0.30;0.30;;;;;;;;;;7386712;19;20133;-74
2022/09/27 12:11:58;;;;;;;0.30;0.30;;;;;;;;;;7386944;19;20135;-73
2022/09/27 12:14:40;;;;;;;0.35;0.35;;;;;;;;;;7384998;19;20141;-73
2022/09/27 12:17:11;;;;;;;0.30;0.30;;;;;;;;;;7386418;19;20128;-73
2022/09/27 12:19:40;;;;;;;0.30;0.30;;;;;;;;;;7385845;19;20149;-73
2022/09/27 12:22:11;;;;;;;0.30;0.30;;;;;;;;;;7387648;19;20105;-73
2022/09/27 12:24:37;;;;;;;0.30;0.30;;;;;;;;;;7387156;19;20507;-74
2022/09/27 12:27:08;;;;;;;0.20;0.20;;;;;;;;;;7387126;19;20140;-73
2022/09/27 12:29:37;;;;;;;0.30;0.30;;;;;;;;;;7386943;19;20114;-74
2022/09/27 12:32:30;;;;;;;0.30;0.30;;;;;;;;;;7383771;19;20589;-73
2022/09/27 12:35:03;;;;;;;0.30;0.30;;;;;;;;;;7383279;19;20152;-73
2022/09/27 12:38:00;;;;;;;0.30;0.30;;;;;;;;;;7385796;19;20105;-74
2022/09/27 12:40:28;;;;;;;6.82;1.50;;;;;;;;;;7386085;19;20146;-73
2022/09/27 12:43:06;;;;;;;0.30;0.30;;;;;;;;;;7390028;19;20448;-74
2022/09/27 12:45:43;;;;;;;0.30;0.30;;;;;;;;;;7388681;19;20132;-73
2022/09/27 12:48:27;;;;;;;0.47;0.43;;;;;;;;;;7387725;19;20124;-74
2022/09/27 12:50:57;;;;;;;0.30;0.30;;;;;;;;;;7388691;19;20105;-73
2022/09/27 12:53:28;;;;;;;0.30;0.30;;;;;;;;;;7387448;19;20975;-73
2022/09/27 12:56:01;;;;;;;0.30;0.30;;;;;;;;;;7385949;19;20151;-74
2022/09/27 12:58:45;;;;;;;0.30;0.30;;;;;;;;;;7388958;19;20555;-73
2022/09/27 13:01:42;;;;;;;0.30;0.30;;;;;;;;;;7389367;19;20121;-73
2022/09/27 13:04:36;;;;;;;0.28;0.28;;;;;;;;;;7382116;19;20121;-73
2022/09/27 13:07:26;;;;;;;0.20;0.20;;;;;;;;;;7386733;19;20163;-74
2022/09/27 13:10:16;;;;;;;0.30;0.30;;;;;;;;;;7387905;19;20200;-73
2022/09/27 13:12:47;;;;;;;0.30;0.30;;;;;;;;;;7382780;19;20123;-73
2022/09/27 13:15:24;;;;;;;0.30;0.30;;;;;;;;;;7386537;19;20129;-74
2022/09/27 13:17:58;;;;;;;0.30;0.30;;;;;;;;;;7386075;19;20125;-73
2022/09/27 13:20:29;;;;;;;0.30;0.30;;;;;;;;;;7382985;19;20109;-74
2022/09/27 13:22:58;;;;;;;0.30;0.30;;;;;;;;;;7381060;19;20597;-75
2022/09/27 13:25:50;;;;;;;0.30;0.30;;;;;;;;;;7382399;19;20607;-73
2022/09/27 13:28:30;;;;;;;0.30;0.30;;;;;;;;;;7386362;19;20124;-73
2022/09/27 13:30:57;;;;;;;0.32;0.32;;;;;;;;;;7384720;19;20135;-74
2022/09/27 13:33:45;;;;;;;0.30;0.30;;;;;;;;;;7385734;19;20101;-73
2022/09/27 13:36:28;;;;;;;0.30;0.30;;;;;;;;;;7385384;19;20138;-74
2022/09/27 13:39:12;;;;;;;0.30;0.30;;;;;;;;;;7384667;19;20117;-73
2022/09/27 13:41:44;;;;;;;0.20;0.20;;;;;;;;;;7384879;19;20106;-74
2022/09/27 13:44:30;;;;;;;0.20;0.20;;;;;;;;;;7384725;19;20240;-73
2022/09/27 13:46:58;;;;;;;0.30;0.30;;;;;;;;;;7382844;19;20606;-74
2022/09/27 13:49:46;;;;;;;0.30;0.30;;;;;;;;;;7385838;19;20144;-73
2022/09/27 13:52:24;;;;;;;0.30;0.30;;;;;;;;;;7385065;19;20466;-75
2022/09/27 13:54:54;;;;;;;0.20;0.20;;;;;;;;;;7383764;19;20181;-73
2022/09/27 13:57:44;;;;;;;0.40;0.40;;;;;;;;;;7382258;19;20146;-74
2022/09/27 14:00:43;;;;;;;0.20;0.20;;;;;;;;;;7382650;19;20500;-73
2022/09/27 14:03:11;;;;;;;0.30;0.30;;;;;;;;;;7382639;19;20133;-73
2022/09/27 14:05:40;;;;;;;0.30;0.30;;;;;;;;;;7384474;19;20129;-73
2022/09/27 14:08:06;;;;;;;0.30;0.30;;;;;;;;;;7383906;19;20109;-73
2022/09/27 14:10:33;;;;;;;0.30;0.30;;;;;;;;;;7380369;19;20571;-73
2022/09/27 14:13:00;;;;;;;0.30;0.30;;;;;;;;;;7383755;19;20125;-73
2022/09/27 14:15:28;;;;;;;0.30;0.30;;;;;;;;;;7382335;19;20531;-74
2022/09/27 14:17:54;;;;;;;0.30;0.30;;;;;;;;;;7383010;19;20121;-73
2022/09/27 14:20:39;;;;;;;0.30;0.30;;;;;;;;;;7380178;19;20591;-74
2022/09/27 15:55:53;;;;;;;0.30;0.30;;;;;;;;;;7386781;19;20213;-74
2022/09/27 15:58:20;;;;;;;0.30;0.30;;;;;;;;;;7382211;19;20324;-74
2022/09/27 16:00:56;;;;;;;0.40;0.40;;;;;;;;;;7381571;19;20121;-74
2022/09/27 16:03:23;;;;;;;0.80;0.80;;;;;;;;;;7385890;19;20132;-74
2022/09/27 16:05:48;;;;;;;0.30;0.30;;;;;;;;;;7384354;19;20125;-74
2022/09/27 16:08:14;;;;;;;0.30;0.30;;;;;;;;;;7381941;19;20143;-74
2022/09/27 16:10:43;;;;;;;0.30;0.30;;;;;;;;;;7381346;19;20606;-74
2022/09/27 16:13:08;;;;;;;0.30;0.30;;;;;;;;;;7383439;19;20599;-74
2022/09/27 16:15:35;;;;;;;0.50;0.50;;;;;;;;;;7377456;19;20171;-73
2022/09/27 16:18:03;;;;;;;0.57;0.37;;;;;;;;;;7381103;19;20117;-74
2022/09/27 16:20:28;;;;;;;0.20;0.20;;;;;;;;;;7382665;19;20117;-73
2022/09/27 16:22:54;;;;;;;0.20;0.20;;;;;;;;;;7380604;19;20146;-73
2022/09/27 16:25:21;;;;;;;0.20;0.20;;;;;;;;;;7379421;19;20157;-74
2022/09/27 16:27:46;;;;;;;0.30;0.30;;;;;;;;;;7389477;19;20125;-73
2022/09/27 16:30:12;;;;;;;0.30;0.30;;;;;;;;;;7385314;19;20138;-73
2022/09/27 16:32:42;;;;;;;0.30;0.30;;;;;;;;;;7389337;19;20113;-74
2022/09/27 16:35:08;;;;;;;0.30;0.30;;;;;;;;;;7385647;19;20491;-73
2022/09/27 16:37:34;;;;;;;0.30;0.30;;;;;;;;;;7386516;19;20128;-73
2022/09/27 16:39:59;;;;;;;0.30;0.30;;;;;;;;;;7384311;19;20132;-73
2022/09/27 16:42:26;;;;;;;0.20;0.20;;;;;;;;;;7388292;19;20109;-73
2022/09/27 16:44:52;;;;;;;0.20;0.20;;;;;;;;;;7386494;19;20129;-73
2022/09/27 16:47:17;;;;;;;0.30;0.30;;;;;;;;;;7387865;19;20121;-73
2022/09/27 16:52:28;;;;;;;0.27;0.27;;;;;;;;;;7391192;19;20477;-73
2022/09/27 16:54:53;;;;;;;0.97;0.73;;;;;;;;;;7383556;19;20920;-73